createdAt,value
2022-10-02T00:02:09.896Z,97964.34
2022-10-02T00:04:57.816Z,97962.62
2022-10-02T00:07:31.485Z,97968.38
2022-10-02T00:10:02.261Z,97974.78
2022-10-02T00:12:30.987Z,97985.44
2022-10-02T00:15:13.709Z,97980.66
2022-10-02T00:17:43.011Z,97988.25
2022-10-02T00:20:17.128Z,97991.19
2022-10-02T00:22:53.805Z,97985.22
2022-10-02T00:25:26.646Z,97986.91
2022-10-02T00:28:12.671Z,97992.84
2022-10-02T00:30:55.316Z,97995.13
2022-10-02T00:33:32.424Z,97985.22
2022-10-02T00:36:04.957Z,97987.81
2022-10-02T00:38:51.658Z,97991.53
2022-10-02T00:42:15.425Z,97999.22
2022-10-02T00:44:49.766Z,98004.03
2022-10-02T00:47:38.264Z,98014.47
2022-10-02T00:50:53.749Z,98015.47
2022-10-02T00:53:49.115Z,98009.13
2022-10-02T00:56:37.917Z,98016.66
2022-10-02T00:59:22.903Z,98024.56
2022-10-02T01:02:04.922Z,98019.00
2022-10-02T01:04:37.471Z,98018.41
2022-10-02T01:07:07.388Z,98023.62
2022-10-02T01:09:34.404Z,98027.81
2022-10-02T01:12:01.554Z,98033.00
2022-10-02T01:14:39.414Z,98031.50
2022-10-02T01:17:08.126Z,98035.69
2022-10-02T01:19:39.763Z,98033.94
2022-10-02T01:22:30.557Z,98040.13
2022-10-02T01:24:59.122Z,98040.84
2022-10-02T01:27:27.013Z,98041.75
2022-10-02T01:30:01.511Z,98052.16
2022-10-02T01:32:29.455Z,98063.88
2022-10-02T01:34:56.757Z,98064.81
2022-10-02T01:37:27.481Z,98070.00
2022-10-02T01:39:54.417Z,98082.81
2022-10-02T01:42:21.769Z,98085.31
2022-10-02T01:44:48.863Z,98079.84
2022-10-02T01:47:20.035Z,98079.91
2022-10-02T01:50:03.135Z,98088.66
2022-10-02T01:52:48.369Z,98085.88
2022-10-02T01:55:34.791Z,98074.75
2022-10-02T01:58:16.822Z,98082.25
2022-10-02T02:01:16.016Z,98088.66
2022-10-02T02:03:54.627Z,98082.28
2022-10-02T02:06:34.996Z,98087.47
2022-10-02T02:09:19.154Z,98085.81
2022-10-02T02:11:54.601Z,98074.28
2022-10-02T02:14:27.245Z,98074.19
2022-10-02T02:17:09.734Z,98070.94
2022-10-02T02:19:49.420Z,98078.91
2022-10-02T02:22:39.032Z,98079.69
2022-10-02T02:25:26.694Z,98081.81
2022-10-02T02:27:57.138Z,98094.41
2022-10-02T02:30:24.596Z,98082.81
2022-10-02T02:33:05.971Z,98077.16
2022-10-02T02:35:45.670Z,98081.97
2022-10-02T02:38:21.799Z,98091.94
2022-10-02T02:40:49.021Z,98091.94
2022-10-02T02:43:21.283Z,98090.53
2022-10-02T02:45:54.240Z,98090.91
2022-10-02T02:48:26.051Z,98096.78
2022-10-02T02:51:01.938Z,98108.66
2022-10-02T02:53:38.887Z,98106.31
2022-10-02T02:56:09.039Z,98117.72
2022-10-02T02:58:43.742Z,98113.66
2022-10-02T03:01:10.894Z,98119.59
2022-10-02T03:03:37.783Z,98117.47
2022-10-02T03:06:27.270Z,98108.19
2022-10-02T03:08:54.481Z,98125.63
2022-10-02T03:11:24.033Z,98116.00
2022-10-02T03:13:53.997Z,98118.03
2022-10-02T03:16:30.213Z,98110.84
2022-10-02T03:19:06.704Z,98117.13
2022-10-02T03:21:42.383Z,98121.53
2022-10-02T03:24:31.812Z,98126.37
2022-10-02T03:27:14.239Z,98112.78
2022-10-02T03:29:47.177Z,98124.63
2022-10-02T03:32:15.758Z,98132.31
2022-10-02T03:34:42.644Z,98140.84
2022-10-02T03:37:09.512Z,98124.69
2022-10-02T03:39:40.741Z,98124.22
2022-10-02T03:42:10.546Z,98130.97
2022-10-02T03:44:37.695Z,98130.94
2022-10-02T03:47:04.593Z,98142.69
2022-10-02T03:49:31.441Z,98139.47
2022-10-02T03:51:58.274Z,98146.16
2022-10-02T03:54:25.161Z,98147.16
2022-10-02T03:56:57.069Z,98162.41
2022-10-02T04:00:05.374Z,98166.66
2022-10-02T04:02:40.967Z,98173.34
2022-10-02T04:05:19.814Z,98178.78
2022-10-02T04:07:52.824Z,98183.66
2022-10-02T04:10:28.470Z,98184.81
2022-10-02T04:13:03.302Z,98191.53
2022-10-02T04:15:41.583Z,98195.16
2022-10-02T04:18:12.151Z,98198.81
2022-10-02T04:20:51.668Z,98201.75
2022-10-02T04:23:26.659Z,98204.88
2022-10-02T04:26:00.483Z,98199.63
2022-10-02T04:28:32.844Z,98207.38
2022-10-02T04:31:01.592Z,98210.37
2022-10-02T04:33:28.809Z,98206.34
2022-10-02T04:36:10.852Z,98217.00
2022-10-02T04:38:55.657Z,98218.41
2022-10-02T04:41:47.385Z,98207.34
2022-10-02T04:44:24.059Z,98221.84
2022-10-02T04:47:15.419Z,98229.84
2022-10-02T04:50:00.597Z,98224.34
2022-10-02T04:52:50.070Z,98218.50
2022-10-02T04:55:35.600Z,98226.00
2022-10-02T04:58:21.259Z,98228.91
2022-10-02T05:01:11.939Z,98240.97
2022-10-02T05:04:00.676Z,98242.63
2022-10-02T05:07:06.354Z,98236.50
2022-10-02T05:09:40.413Z,98250.84
2022-10-02T05:12:44.920Z,98247.75
2022-10-02T05:15:11.711Z,98251.12
2022-10-02T05:18:07.877Z,98254.38
2022-10-02T05:20:46.895Z,98257.47
2022-10-02T05:23:52.670Z,98262.87
2022-10-02T05:26:50.523Z,98265.84
2022-10-02T05:29:35.706Z,98272.56
2022-10-02T05:32:26.217Z,98280.91
2022-10-02T05:35:25.150Z,98297.59
2022-10-02T05:38:10.931Z,98299.50
2022-10-02T05:40:45.659Z,98306.28
2022-10-02T05:43:18.398Z,98311.41
2022-10-02T05:46:24.383Z,98319.28
2022-10-02T05:49:06.712Z,98329.34
2022-10-02T05:51:40.013Z,98322.72
2022-10-02T05:54:25.909Z,98327.38
2022-10-02T05:56:58.973Z,98329.28
2022-10-02T05:59:41.902Z,98331.00
2022-10-02T06:02:39.126Z,98320.00
2022-10-02T06:05:19.367Z,98325.66
2022-10-02T06:07:48.112Z,98335.69
2022-10-02T06:10:18.482Z,98332.87
2022-10-02T06:12:55.265Z,98334.41
2022-10-02T06:15:37.287Z,98337.06
2022-10-02T06:18:10.762Z,98332.78
2022-10-02T06:20:52.505Z,98337.56
2022-10-02T06:23:23.231Z,98342.44
2022-10-02T06:25:53.709Z,98338.16
2022-10-02T06:28:22.320Z,98352.03
2022-10-02T06:31:00.045Z,98338.28
2022-10-02T06:33:29.660Z,98351.47
2022-10-02T06:36:13.808Z,98335.88
2022-10-02T06:38:43.232Z,98339.53
2022-10-02T06:41:29.560Z,98350.34
2022-10-02T06:44:08.532Z,98353.91
2022-10-02T06:46:51.283Z,98351.88
2022-10-02T06:49:50.094Z,98355.03
2022-10-02T06:52:40.419Z,98359.28
2022-10-02T06:55:13.210Z,98363.00
2022-10-02T06:57:56.113Z,98364.28
2022-10-02T07:00:23.050Z,98373.94
2022-10-02T07:02:57.200Z,98370.31
2022-10-02T07:05:45.767Z,98375.72
2022-10-02T07:08:22.223Z,98376.47
2022-10-02T07:11:07.544Z,98387.69
2022-10-02T07:13:41.011Z,98394.59
2022-10-02T07:16:39.554Z,98385.25
2022-10-02T07:19:37.922Z,98391.59
2022-10-02T07:22:43.417Z,98408.97
2022-10-02T07:25:37.182Z,98400.66
2022-10-02T07:28:39.882Z,98409.25
2022-10-02T07:31:28.689Z,98403.00
2022-10-02T07:34:21.351Z,98413.66
2022-10-02T07:36:57.313Z,98420.12
2022-10-02T07:39:32.882Z,98424.25
2022-10-02T07:42:04.760Z,98420.25
2022-10-02T07:44:52.468Z,98426.78
2022-10-02T07:47:19.120Z,98437.25
2022-10-02T07:49:52.263Z,98432.13
2022-10-02T07:52:42.102Z,98439.19
2022-10-02T07:55:22.624Z,98434.72
2022-10-02T07:58:00.196Z,98434.97
2022-10-02T08:00:30.455Z,98432.56
2022-10-02T08:03:00.681Z,98428.75
2022-10-02T08:05:37.201Z,98426.84
2022-10-02T08:08:11.641Z,98435.12
2022-10-02T08:10:40.923Z,98428.25
2022-10-02T08:13:20.712Z,98439.25
2022-10-02T08:15:52.882Z,98425.13
2022-10-02T08:18:35.342Z,98429.56
2022-10-02T08:21:04.939Z,98429.28
2022-10-02T08:23:37.936Z,98431.63
2022-10-02T08:26:10.260Z,98433.19
2022-10-02T08:28:43.291Z,98432.03
2022-10-02T08:31:12.111Z,98424.47
2022-10-02T08:33:39.398Z,98426.88
2022-10-02T08:36:16.651Z,98423.72
2022-10-02T08:38:51.356Z,98426.84
2022-10-02T08:41:32.761Z,98426.75
2022-10-02T08:44:21.617Z,98429.72
2022-10-02T08:47:07.440Z,98420.53
2022-10-02T08:49:47.763Z,98417.78
2022-10-02T08:53:16.163Z,98416.47
2022-10-02T08:56:04.503Z,98426.72
2022-10-02T08:58:46.536Z,98419.03
2022-10-02T09:01:35.356Z,98428.03
2022-10-02T09:04:13.182Z,98428.75
2022-10-02T09:07:27.439Z,98425.31
2022-10-02T09:09:55.061Z,98443.63
2022-10-02T09:12:38.076Z,98449.25
2022-10-02T09:15:19.460Z,98448.19
2022-10-02T09:17:49.532Z,98448.53
2022-10-02T09:20:28.486Z,98450.66
2022-10-02T09:23:05.980Z,98447.44
2022-10-02T09:25:56.066Z,98432.75
2022-10-02T09:28:49.971Z,98431.63
2022-10-02T09:31:35.293Z,98430.59
2022-10-02T09:34:27.072Z,98428.12
2022-10-02T09:37:16.360Z,98435.59
2022-10-02T09:40:31.644Z,98419.66
2022-10-02T09:42:58.459Z,98416.56
2022-10-02T09:45:46.882Z,98418.84
2022-10-02T09:48:31.593Z,98427.03
2022-10-02T09:51:08.560Z,98436.75
2022-10-02T09:54:12.131Z,98432.78
2022-10-02T09:57:31.944Z,98418.31
2022-10-02T10:00:31.418Z,98406.75
2022-10-02T10:03:25.961Z,98420.59
2022-10-02T10:06:30.074Z,98411.66
2022-10-02T10:09:15.358Z,98402.78
2022-10-02T10:11:55.385Z,98402.50
2022-10-02T10:14:45.429Z,98402.53
2022-10-02T10:17:48.530Z,98403.97
2022-10-02T10:20:45.369Z,98399.97
2022-10-02T10:23:37.116Z,98403.56
2022-10-02T10:26:34.594Z,98410.94
2022-10-02T10:29:22.320Z,98399.59
2022-10-02T10:32:41.395Z,98397.28
2022-10-02T10:35:45.680Z,98390.66
2022-10-02T10:38:38.611Z,98386.69
2022-10-02T10:41:37.775Z,98379.94
2022-10-02T10:44:46.449Z,98375.75
2022-10-02T10:47:40.206Z,98381.50
2022-10-02T10:50:16.179Z,98396.22
2022-10-02T10:52:42.969Z,98378.88
2022-10-02T10:55:33.730Z,98382.38
2022-10-02T10:58:21.495Z,98380.84
2022-10-02T11:00:56.278Z,98381.31
2022-10-02T11:03:42.005Z,98378.72
2022-10-02T11:06:24.009Z,98380.66
2022-10-02T11:09:28.706Z,98374.31
2022-10-02T11:11:57.729Z,98376.75
2022-10-02T11:14:41.257Z,98371.53
2022-10-02T11:17:15.047Z,98365.88
2022-10-02T11:19:54.263Z,98372.00
2022-10-02T11:22:45.709Z,98369.09
2022-10-02T11:25:23.055Z,98356.69
2022-10-02T11:28:22.368Z,98362.13
2022-10-02T11:31:25.930Z,98359.16
2022-10-02T11:34:25.907Z,98363.13
2022-10-02T11:37:31.728Z,98366.31
2022-10-02T11:40:19.821Z,98360.84
2022-10-02T11:43:02.355Z,98356.81
2022-10-02T11:45:38.610Z,98353.47
2022-10-02T11:48:12.837Z,98351.66
2022-10-02T11:50:44.645Z,98348.09
2022-10-02T11:53:29.477Z,98349.50
2022-10-02T11:56:33.712Z,98334.75
2022-10-02T11:59:38.275Z,98339.87
2022-10-02T12:02:23.257Z,98344.84
2022-10-02T12:05:04.162Z,98344.75
2022-10-02T12:07:50.265Z,98344.97
2022-10-02T12:10:33.897Z,98336.12
2022-10-02T12:13:16.175Z,98334.41
2022-10-02T12:15:56.020Z,98337.13
2022-10-02T12:18:45.222Z,98326.38
2022-10-02T12:21:55.502Z,98316.28
2022-10-02T12:24:55.020Z,98328.78
2022-10-02T12:27:22.373Z,98322.47
2022-10-02T12:30:23.871Z,98331.66
2022-10-02T12:33:11.700Z,98343.66
2022-10-02T12:36:05.615Z,98334.75
2022-10-02T12:38:54.395Z,98340.22
2022-10-02T12:41:52.488Z,98330.75
2022-10-02T12:44:32.272Z,98339.72
2022-10-02T12:47:37.112Z,98336.03
2022-10-02T12:50:37.545Z,98339.31
2022-10-02T12:53:41.685Z,98330.88
2022-10-02T12:56:14.376Z,98328.50
2022-10-02T12:59:06.726Z,98324.63
2022-10-02T13:02:11.970Z,98323.78
2022-10-02T13:05:06.343Z,98324.47
2022-10-02T13:08:18.408Z,98325.63
2022-10-02T13:11:07.802Z,98333.03
2022-10-02T13:13:52.867Z,98328.66
2022-10-02T13:16:49.854Z,98325.91
2022-10-02T13:19:43.745Z,98335.38
2022-10-02T13:22:34.145Z,98334.84
2022-10-02T13:25:25.507Z,98326.16
2022-10-02T13:28:25.529Z,98328.41
2022-10-02T13:31:08.123Z,98331.13
2022-10-02T13:34:03.503Z,98305.69
2022-10-02T13:37:01.603Z,98311.72
2022-10-02T13:39:34.182Z,98303.78
2022-10-02T13:42:27.758Z,98295.31
2022-10-02T13:45:12.947Z,98293.66
2022-10-02T13:47:53.273Z,98290.72
2022-10-02T13:50:29.550Z,98278.53
2022-10-02T13:53:19.725Z,98273.16
2022-10-02T13:56:13.296Z,98248.53
2022-10-02T13:58:54.234Z,98250.00
2022-10-02T14:01:26.955Z,98248.72
2022-10-02T14:04:11.028Z,98253.22
2022-10-02T14:07:20.569Z,98249.91
2022-10-02T14:10:19.776Z,98242.69
2022-10-02T14:13:15.021Z,98243.97
2022-10-02T14:16:09.790Z,98229.94
2022-10-02T14:18:50.035Z,98245.44
2022-10-02T14:21:31.216Z,98252.31
2022-10-02T14:24:04.551Z,98256.50
2022-10-02T14:27:03.393Z,98244.81
2022-10-02T14:29:51.463Z,98233.28
2022-10-02T14:32:38.404Z,98222.28
2022-10-02T14:35:30.388Z,98245.22
2022-10-02T14:38:04.947Z,98240.94
2022-10-02T14:40:51.926Z,98257.81
2022-10-02T14:43:33.718Z,98247.72
2022-10-02T14:46:15.402Z,98252.31
2022-10-02T14:49:05.946Z,98249.50
2022-10-02T14:52:10.673Z,98231.72
2022-10-02T14:55:02.174Z,98223.16
2022-10-02T14:57:28.964Z,98208.31
2022-10-02T15:00:05.643Z,98198.03
2022-10-02T15:02:54.434Z,98192.97
2022-10-02T15:05:47.858Z,98192.69
2022-10-02T15:08:17.879Z,98182.19
2022-10-02T15:10:45.493Z,98186.87
2022-10-02T15:13:30.650Z,98175.97
2022-10-02T15:16:28.293Z,98171.84
2022-10-02T15:19:19.236Z,98163.13
2022-10-02T15:21:47.194Z,98160.19
2022-10-02T15:24:26.032Z,98153.81
2022-10-02T15:27:14.606Z,98160.81
2022-10-02T15:29:47.250Z,98155.38
2022-10-02T15:32:55.621Z,98152.75
2022-10-02T15:35:34.397Z,98152.09
2022-10-02T15:38:11.221Z,98137.16
2022-10-02T15:40:47.517Z,98144.22
2022-10-02T15:43:17.318Z,98142.38
2022-10-02T15:46:19.370Z,98130.66
2022-10-02T15:49:22.293Z,98132.34
2022-10-02T15:52:26.687Z,98132.22
2022-10-02T15:55:16.025Z,98132.06
2022-10-02T15:57:57.371Z,98135.25
2022-10-02T16:00:27.389Z,98127.59
2022-10-02T16:03:04.875Z,98133.53
2022-10-02T16:05:57.480Z,98130.59
2022-10-02T16:08:52.039Z,98148.66
2022-10-02T16:11:33.617Z,98145.06
2022-10-02T16:14:13.386Z,98142.19
2022-10-02T16:16:46.444Z,98148.31
2022-10-02T16:19:50.928Z,98154.56
2022-10-02T16:22:18.153Z,98150.34
2022-10-02T16:25:10.348Z,98146.19
2022-10-02T16:27:48.372Z,98138.47
2022-10-02T16:30:21.415Z,98146.41
2022-10-02T16:33:00.572Z,98137.31
2022-10-02T16:35:49.157Z,98157.13
2022-10-02T16:38:47.606Z,98158.97
2022-10-02T16:42:00.669Z,98161.12
2022-10-02T16:44:56.070Z,98167.41
2022-10-02T16:47:46.871Z,98159.25
2022-10-02T16:50:17.111Z,98161.59
2022-10-02T16:53:05.980Z,98173.03
2022-10-02T16:55:51.593Z,98164.13
2022-10-02T16:58:46.367Z,98163.87
2022-10-02T17:01:24.176Z,98160.69
2022-10-02T17:04:13.913Z,98174.00
2022-10-02T17:06:46.910Z,98175.38
2022-10-02T17:09:41.215Z,98165.56
2022-10-02T17:12:19.614Z,98161.66
2022-10-02T17:15:01.081Z,98169.28
2022-10-02T17:17:43.091Z,98174.44
2022-10-02T17:20:18.149Z,98170.69
2022-10-02T17:23:09.364Z,98161.09
2022-10-02T17:25:43.908Z,98154.03
2022-10-02T17:28:48.727Z,98161.09
2022-10-02T17:31:39.260Z,98140.41
2022-10-02T17:34:21.371Z,98137.19
2022-10-02T17:36:59.661Z,98147.63
2022-10-02T17:39:45.273Z,98145.03
2022-10-02T17:42:32.952Z,98144.47
2022-10-02T17:45:04.316Z,98146.44
2022-10-02T17:47:39.680Z,98130.84
2022-10-02T17:50:44.389Z,98129.91
2022-10-02T17:53:29.749Z,98121.44
2022-10-02T17:56:30.811Z,98117.44
2022-10-02T17:59:25.892Z,98112.88
2022-10-02T18:01:55.492Z,98128.91
2022-10-02T18:04:33.483Z,98130.50
2022-10-02T18:07:15.646Z,98127.22
2022-10-02T18:09:44.512Z,98145.28
2022-10-02T18:12:49.298Z,98138.63
2022-10-02T18:15:34.400Z,98139.88
2022-10-02T18:18:29.085Z,98145.25
2022-10-02T18:21:19.479Z,98150.38
2022-10-02T18:23:54.239Z,98154.34
2022-10-02T18:26:27.093Z,98152.00
2022-10-02T18:29:24.316Z,98148.81
2022-10-02T18:32:21.387Z,98163.97
2022-10-02T18:35:04.341Z,98163.84
2022-10-02T18:37:50.363Z,98149.47
2022-10-02T18:40:56.927Z,98139.50
2022-10-02T18:43:41.808Z,98145.78
2022-10-02T18:46:30.562Z,98142.59
2022-10-02T18:49:08.024Z,98152.28
2022-10-02T18:52:16.038Z,98134.31
2022-10-02T18:55:13.480Z,98140.78
2022-10-02T18:57:57.667Z,98126.53
2022-10-02T19:00:28.260Z,98131.78
2022-10-02T19:03:14.858Z,98118.97
2022-10-02T19:05:54.576Z,98118.06
2022-10-02T19:08:26.695Z,98106.06
2022-10-02T19:10:53.609Z,98104.53
2022-10-02T19:13:29.994Z,98107.25
2022-10-02T19:16:01.453Z,98108.34
2022-10-02T19:18:30.435Z,98105.63
2022-10-02T19:21:08.442Z,98113.19
2022-10-02T19:23:38.359Z,98118.06
2022-10-02T19:26:18.193Z,98125.84
2022-10-02T19:28:48.280Z,98128.06
2022-10-02T19:31:21.196Z,98131.69
2022-10-02T19:33:52.982Z,98130.91
2022-10-02T19:36:26.032Z,98131.66
2022-10-02T19:39:04.929Z,98128.41
2022-10-02T19:41:36.254Z,98131.59
2022-10-02T19:44:07.271Z,98118.63
2022-10-02T19:46:49.870Z,98114.53
2022-10-02T19:49:40.730Z,98119.63
2022-10-02T19:52:37.352Z,98114.59
2022-10-02T19:55:16.886Z,98110.22
2022-10-02T19:57:45.452Z,98114.91
2022-10-02T20:00:17.532Z,98103.78
2022-10-02T20:02:49.148Z,98111.81
2022-10-02T20:05:23.375Z,98105.66
2022-10-02T20:07:52.652Z,98102.81
2022-10-02T20:10:27.815Z,98092.66
2022-10-02T20:13:01.397Z,98084.62
2022-10-02T20:15:56.375Z,98078.97
2022-10-02T20:18:23.554Z,98072.25
2022-10-02T20:20:53.046Z,98077.06
2022-10-02T20:23:24.964Z,98076.66
2022-10-02T20:25:56.620Z,98064.63
2022-10-02T20:28:33.681Z,98073.50
2022-10-02T20:31:12.318Z,98078.47
2022-10-02T20:34:20.893Z,98087.47
2022-10-02T20:37:04.052Z,98080.16
2022-10-02T20:39:36.122Z,98080.31
2022-10-02T20:42:23.095Z,98080.06
2022-10-02T20:44:50.859Z,98081.09
2022-10-02T20:47:36.954Z,98081.37
2022-10-02T20:50:25.861Z,98079.59
2022-10-02T20:53:17.602Z,98078.56
2022-10-02T20:56:02.276Z,98073.91
2022-10-02T20:58:53.181Z,98084.81
2022-10-02T21:01:42.397Z,98082.38
2022-10-02T21:04:40.226Z,98072.34
2022-10-02T21:07:26.085Z,98068.72
2022-10-02T21:10:40.492Z,98063.41
2022-10-02T21:13:24.405Z,98074.16
2022-10-02T21:16:42.321Z,98096.34
2022-10-02T21:19:39.992Z,98095.97
2022-10-02T21:22:26.852Z,98093.03
2022-10-02T21:25:08.990Z,98096.19
2022-10-02T21:28:13.584Z,98097.06
2022-10-02T21:31:14.680Z,98087.31
2022-10-02T21:33:49.963Z,98094.19
2022-10-02T21:36:22.963Z,98094.16
2022-10-02T21:39:41.172Z,98090.84
2022-10-02T21:42:37.150Z,98093.97
2022-10-02T21:45:25.695Z,98095.25
2022-10-02T21:48:24.412Z,98098.62
2022-10-02T21:51:01.717Z,98098.03
2022-10-02T21:53:34.384Z,98106.84
2022-10-02T21:56:48.527Z,98110.25
2022-10-02T21:59:25.228Z,98104.38
2022-10-02T22:02:11.669Z,98097.72
2022-10-02T22:04:45.723Z,98096.16
2022-10-02T22:07:36.752Z,98094.87
2022-10-02T22:10:34.602Z,98096.56
2022-10-02T22:13:18.375Z,98097.06
2022-10-02T22:16:04.380Z,98091.97
2022-10-02T22:18:51.266Z,98096.34
2022-10-02T22:21:46.030Z,98099.50
2022-10-02T22:24:21.565Z,98101.69
2022-10-02T22:27:00.404Z,98100.00
2022-10-02T22:29:54.326Z,98091.59
2022-10-02T22:33:04.833Z,98086.72
2022-10-02T22:36:01.992Z,98095.87
2022-10-02T22:38:42.366Z,98093.31
2022-10-02T22:41:34.334Z,98091.72
2022-10-02T22:44:06.227Z,98087.87
2022-10-02T22:46:49.890Z,98082.25
2022-10-02T22:49:18.915Z,98088.84
2022-10-02T22:51:49.987Z,98082.16
2022-10-02T22:54:25.805Z,98083.81
2022-10-02T22:56:58.321Z,98084.97
2022-10-02T22:59:31.809Z,98076.66
2022-10-02T23:02:21.218Z,98081.84
2022-10-02T23:05:02.081Z,98094.63
2022-10-02T23:07:40.703Z,98096.53
2022-10-02T23:10:21.453Z,98089.84
2022-10-02T23:13:00.150Z,98092.38
2022-10-02T23:15:42.029Z,98076.06
2022-10-02T23:18:20.859Z,98088.97
2022-10-02T23:21:04.714Z,98083.16
2022-10-02T23:23:37.200Z,98088.87
2022-10-02T23:26:11.336Z,98088.22
2022-10-02T23:28:53.359Z,98091.03
2022-10-02T23:31:31.467Z,98105.97
2022-10-02T23:34:24.233Z,98089.31
2022-10-02T23:36:53.199Z,98085.09
2022-10-02T23:39:39.661Z,98091.88
2022-10-02T23:42:11.080Z,98095.81
2022-10-02T23:44:43.323Z,98108.69
2022-10-02T23:47:10.220Z,98100.09
2022-10-02T23:49:44.159Z,98092.59
2022-10-02T23:52:26.253Z,98092.84
2022-10-02T23:54:53.057Z,98091.03
2022-10-02T23:57:47.876Z,98105.16
